Moorhead, Mississippi
Current Conditions -  °F | °C
As of 3:53 AM on Saturday 29 Nov 2014 (Local Time) from KGWO Reporting Station
Broken Clouds Broken Clouds  
Wind Chill: 51°   Ceiling: 4100
Heat Index: 51°   Visibility: 10mi
Dew Point: 43°   Wind: 15mph
Humidity: 74%   Direction: 200°SSW
Pressure: 30.13"   Gusts: 24mph
Location:  33.45°N, 90.51°W
Report Text: KGWO 290953Z AUTO 20013G21KT 10SM BKN041 11/06 A3013 RMK AO2 SLP204 T01060061 TSNO
Loading
Personal Weather Stations






























Interactive Weather Map New forecast layout! Learn more

10-Day Weather Forecast

Advertisements
Track Severe Weather on mobile